createdAt,value
2018-05-06T00:01:45.475Z,18.37
2018-05-06T00:04:13.690Z,17.67
2018-05-06T00:06:41.144Z,18.57
2018-05-06T00:09:08.591Z,18.67
2018-05-06T00:11:36.033Z,19.30
2018-05-06T00:14:03.500Z,18.70
2018-05-06T00:16:31.712Z,16.30
2018-05-06T00:18:59.934Z,17.23
2018-05-06T00:21:28.004Z,14.93
2018-05-06T00:23:56.227Z,16.13
2018-05-06T00:26:23.665Z,16.03
2018-05-06T00:28:51.887Z,15.40
2018-05-06T00:31:19.338Z,14.43
2018-05-06T00:33:46.776Z,14.52
2018-05-06T00:36:14.223Z,13.97
2018-05-06T00:38:42.486Z,14.00
2018-05-06T00:41:09.895Z,13.00
2018-05-06T00:43:38.106Z,14.10
2018-05-06T00:46:05.558Z,13.20
2018-05-06T00:48:33.010Z,13.63
2018-05-06T00:51:00.454Z,13.23
2018-05-06T00:53:27.898Z,14.07
2018-05-06T00:55:55.410Z,13.40
2018-05-06T00:58:23.607Z,12.30
2018-05-06T01:00:52.435Z,13.37
2018-05-06T01:03:19.880Z,13.00
2018-05-06T01:05:47.326Z,12.87
2018-05-06T01:08:14.769Z,13.60
2018-05-06T01:10:42.206Z,12.80
2018-05-06T01:13:09.645Z,13.43
2018-05-06T01:15:37.222Z,13.00
2018-05-06T01:18:04.664Z,12.43
2018-05-06T01:20:32.104Z,12.07
2018-05-06T01:22:59.542Z,12.47
2018-05-06T01:25:27.752Z,11.53
2018-05-06T01:27:55.196Z,11.40
2018-05-06T01:30:22.642Z,11.47
2018-05-06T01:32:50.088Z,11.50
2018-05-06T01:35:18.298Z,11.20
2018-05-06T01:37:45.741Z,9.97
2018-05-06T01:40:13.190Z,10.10
2018-05-06T01:42:40.639Z,10.10
2018-05-06T01:45:08.082Z,8.50
2018-05-06T01:47:35.513Z,9.77
2018-05-06T01:50:02.962Z,9.50
2018-05-06T01:52:31.170Z,9.50
2018-05-06T01:54:59.384Z,8.30
2018-05-06T01:57:26.822Z,8.77
2018-05-06T01:59:54.278Z,8.27
2018-05-06T02:02:21.705Z,7.60
2018-05-06T02:04:49.915Z,7.97
2018-05-06T02:07:17.366Z,7.00
2018-05-06T02:09:44.816Z,7.70
2018-05-06T02:12:12.237Z,6.90
2018-05-06T02:14:40.454Z,6.90
2018-05-06T02:17:07.889Z,6.33
2018-05-06T02:19:36.094Z,7.30
2018-05-06T02:22:03.542Z,6.10
2018-05-06T02:24:30.977Z,5.23
2018-05-06T02:26:59.187Z,5.50
2018-05-06T02:29:27.386Z,6.20
2018-05-06T02:31:55.594Z,5.27
2018-05-06T02:34:23.028Z,5.40
2018-05-06T02:36:50.470Z,5.17
2018-05-06T02:39:17.905Z,5.40
2018-05-06T02:41:45.359Z,5.75
2018-05-06T02:44:12.782Z,5.40
2018-05-06T02:54:02.746Z,4.60
2018-05-06T02:56:30.193Z,5.70
2018-05-06T02:58:58.388Z,4.87
2018-05-06T03:01:26.589Z,5.30
2018-05-06T03:03:54.791Z,4.43
2018-05-06T03:06:23.003Z,4.80
2018-05-06T03:08:50.431Z,4.83
2018-05-06T03:11:17.873Z,4.73
2018-05-06T03:13:45.305Z,4.73
2018-05-06T03:16:12.767Z,4.60
2018-05-06T03:18:40.202Z,4.43
2018-05-06T03:21:08.403Z,4.37
2018-05-06T03:23:35.830Z,4.63
2018-05-06T03:26:03.280Z,4.33
2018-05-06T03:28:30.720Z,3.97
2018-05-06T03:30:58.160Z,3.73
2018-05-06T03:33:25.591Z,3.80
2018-05-06T03:35:53.795Z,4.67
2018-05-06T03:38:22.002Z,4.10
2018-05-06T03:40:50.205Z,4.37
2018-05-06T03:43:17.641Z,3.93
2018-05-06T03:45:45.082Z,4.37
2018-05-06T03:48:12.520Z,4.10
2018-05-06T03:50:39.962Z,3.90
2018-05-06T03:53:08.163Z,4.30
2018-05-06T03:55:35.634Z,3.90
2018-05-06T03:58:14.852Z,4.47
2018-05-06T04:00:46.017Z,4.23
2018-05-06T04:03:14.231Z,4.23
2018-05-06T04:05:42.502Z,4.07
2018-05-06T04:08:10.642Z,3.60
2018-05-06T04:10:39.669Z,4.20
2018-05-06T04:13:07.101Z,4.30
2018-05-06T04:15:34.534Z,4.20
2018-05-06T04:18:01.967Z,3.20
2018-05-06T04:20:30.201Z,3.67
2018-05-06T04:22:57.645Z,3.90
2018-05-06T04:25:25.077Z,3.60
2018-05-06T04:27:52.518Z,4.20
2018-05-06T04:30:20.718Z,3.70
2018-05-06T04:32:48.933Z,3.60
2018-05-06T04:35:16.373Z,3.67
2018-05-06T04:37:43.831Z,3.70
2018-05-06T04:40:11.270Z,3.87
2018-05-06T04:42:38.713Z,3.40
2018-05-06T04:45:06.148Z,3.92
2018-05-06T04:47:33.585Z,3.60
2018-05-06T04:50:01.018Z,3.40
2018-05-06T04:52:28.457Z,3.60
2018-05-06T04:54:56.662Z,3.37
2018-05-06T04:57:24.876Z,3.47
2018-05-06T04:59:52.318Z,3.20
2018-05-06T05:02:19.753Z,3.20
2018-05-06T05:04:47.187Z,3.78
2018-05-06T05:07:14.621Z,3.60
2018-05-06T05:09:42.054Z,3.50
2018-05-06T05:12:09.502Z,3.25
2018-05-06T05:14:36.954Z,3.60
2018-05-06T05:17:04.400Z,3.30
2018-05-06T05:19:32.594Z,3.15
2018-05-06T05:22:00.797Z,3.60
2018-05-06T05:24:29.006Z,3.75
2018-05-06T05:26:57.220Z,3.83
2018-05-06T05:29:24.659Z,4.00
2018-05-06T05:31:52.104Z,3.15
2018-05-06T05:34:19.547Z,3.30
2018-05-06T05:36:47.753Z,3.40
2018-05-06T05:39:15.194Z,3.60
2018-05-06T05:41:42.632Z,3.53
2018-05-06T05:44:10.073Z,3.75
2018-05-06T05:46:38.290Z,3.78
2018-05-06T05:49:05.726Z,3.78
2018-05-06T05:51:33.161Z,3.55
2018-05-06T05:54:00.604Z,3.23
2018-05-06T05:56:28.042Z,3.50
2018-05-06T05:58:55.497Z,3.60
2018-05-06T06:01:23.776Z,3.12
2018-05-06T06:03:51.149Z,3.85
2018-05-06T06:06:18.587Z,3.80
2018-05-06T06:08:46.025Z,3.50
2018-05-06T06:11:14.234Z,3.97
2018-05-06T06:13:42.435Z,4.10
2018-05-06T06:16:10.641Z,4.00
2018-05-06T06:18:38.073Z,4.00
2018-05-06T06:21:05.497Z,4.17
2018-05-06T06:23:32.929Z,4.53
2018-05-06T06:26:00.361Z,3.90
2018-05-06T06:28:27.813Z,4.27
2018-05-06T06:30:55.246Z,3.87
2018-05-06T06:33:22.688Z,4.50
2018-05-06T06:35:50.882Z,4.23
2018-05-06T06:38:19.169Z,4.57
2018-05-06T06:40:47.288Z,4.50
2018-05-06T06:43:15.485Z,3.43
2018-05-06T06:45:43.691Z,4.10
2018-05-06T06:48:11.898Z,5.37
2018-05-06T06:50:39.337Z,4.97
2018-05-06T06:53:06.790Z,4.70
2018-05-06T06:55:34.213Z,4.87
2018-05-06T06:58:01.668Z,5.00
2018-05-06T07:00:29.106Z,4.40
2018-05-06T07:02:56.547Z,4.60
2018-05-06T07:05:23.981Z,4.80
2018-05-06T07:07:51.422Z,4.70
2018-05-06T07:10:18.854Z,4.90
2018-05-06T07:12:46.297Z,4.53
2018-05-06T07:15:13.721Z,4.57
2018-05-06T07:17:41.157Z,4.97
2018-05-06T07:20:09.363Z,5.57
2018-05-06T07:22:37.576Z,5.10
2018-05-06T07:25:05.015Z,4.83
2018-05-06T07:27:32.450Z,5.17
2018-05-06T07:29:59.972Z,5.63
2018-05-06T07:32:27.330Z,5.55
2018-05-06T07:34:54.766Z,4.60
2018-05-06T07:37:22.977Z,5.53
2018-05-06T07:39:51.173Z,4.93
2018-05-06T07:42:19.382Z,5.30
2018-05-06T07:44:46.822Z,5.50
2018-05-06T07:47:14.261Z,4.83
2018-05-06T07:49:41.699Z,4.70
2018-05-06T07:52:09.134Z,4.70
2018-05-06T07:54:36.572Z,5.57
2018-05-06T07:57:04.781Z,5.20
2018-05-06T07:59:32.214Z,5.20
2018-05-06T08:01:59.650Z,5.07
2018-05-06T08:14:15.818Z,5.17
2018-05-06T08:16:43.261Z,4.13
2018-05-06T08:19:10.702Z,4.50
2018-05-06T08:21:38.138Z,4.70
2018-05-06T08:24:05.578Z,5.10
2018-05-06T08:26:33.006Z,4.83
2018-05-06T08:29:01.228Z,4.33
2018-05-06T08:31:28.657Z,4.23
2018-05-06T08:33:56.093Z,5.03
2018-05-06T08:36:23.534Z,5.30
2018-05-06T08:38:50.982Z,4.90
2018-05-06T08:41:18.415Z,6.00
2018-05-06T08:43:46.624Z,5.20
2018-05-06T08:46:14.813Z,4.90
2018-05-06T08:48:43.017Z,5.47
2018-05-06T08:51:12.026Z,5.30
2018-05-06T08:53:39.461Z,4.90
2018-05-06T08:56:06.904Z,4.90
2018-05-06T08:58:35.105Z,4.23
2018-05-06T09:01:02.542Z,5.13
2018-05-06T09:03:29.991Z,5.17
2018-05-06T09:10:51.417Z,4.70
2018-05-06T09:13:18.869Z,4.23
2018-05-06T09:15:47.066Z,4.63
2018-05-06T09:18:15.273Z,4.00
2018-05-06T09:20:43.491Z,4.73
2018-05-06T09:23:10.930Z,4.43
2018-05-06T09:25:38.365Z,5.00
2018-05-06T09:28:05.794Z,4.80
2018-05-06T09:30:33.989Z,3.80
2018-05-06T09:33:01.437Z,4.33
2018-05-06T09:35:28.865Z,4.73
2018-05-06T09:37:56.301Z,4.43
2018-05-06T09:40:23.750Z,4.30
2018-05-06T09:42:51.173Z,3.83
2018-05-06T09:45:18.610Z,3.77
2018-05-06T09:47:46.158Z,3.83
2018-05-06T09:50:13.481Z,3.80
2018-05-06T09:52:40.910Z,3.47
2018-05-06T09:55:09.254Z,4.13
2018-05-06T09:57:36.684Z,3.90
2018-05-06T10:00:04.127Z,4.00
2018-05-06T10:02:31.558Z,3.80
2018-05-06T10:04:58.998Z,4.07
2018-05-06T10:07:26.434Z,4.60
2018-05-06T10:09:54.654Z,4.50
2018-05-06T10:12:22.086Z,4.40
2018-05-06T10:14:49.529Z,3.60
2018-05-06T10:17:16.970Z,3.40
2018-05-06T10:19:45.169Z,3.47
2018-05-06T10:22:13.431Z,4.43
2018-05-06T10:24:41.570Z,3.30
2018-05-06T10:27:09.782Z,3.50
2018-05-06T10:29:37.218Z,3.80
2018-05-06T10:32:04.659Z,4.30
2018-05-06T10:34:32.086Z,3.23
2018-05-06T10:36:59.521Z,3.30
2018-05-06T10:39:26.952Z,4.03
2018-05-06T10:41:54.393Z,3.07
2018-05-06T10:44:21.866Z,3.50
2018-05-06T10:46:49.265Z,3.80
2018-05-06T10:49:16.856Z,3.93
2018-05-06T10:51:44.902Z,3.10
2018-05-06T10:54:13.111Z,2.90
2018-05-06T10:56:40.553Z,3.20
2018-05-06T10:59:07.990Z,3.83
2018-05-06T11:01:35.425Z,3.33
2018-05-06T11:04:02.919Z,3.33
2018-05-06T11:06:30.305Z,4.30
2018-05-06T11:08:58.511Z,3.70
2018-05-06T11:11:26.714Z,3.77
2018-05-06T11:13:54.148Z,3.77
2018-05-06T11:16:21.588Z,3.03
2018-05-06T11:18:49.020Z,3.27
2018-05-06T11:21:16.457Z,3.20
2018-05-06T11:23:43.889Z,3.20
2018-05-06T11:26:11.407Z,3.30
2018-05-06T11:28:38.762Z,3.27
2018-05-06T11:31:06.962Z,2.70
2018-05-06T11:33:35.159Z,3.27
2018-05-06T11:36:03.362Z,3.13
2018-05-06T11:38:31.558Z,2.70
2018-05-06T11:40:59.025Z,3.40
2018-05-06T12:49:42.155Z,3.23
2018-05-06T12:52:09.585Z,2.57
2018-05-06T12:54:37.021Z,3.43
2018-05-06T12:57:04.466Z,2.10
2018-05-06T12:59:32.662Z,2.83
2018-05-06T13:02:00.875Z,3.53
2018-05-06T13:04:29.070Z,3.13
2018-05-06T13:06:57.274Z,3.00
2018-05-06T13:09:25.480Z,3.08
2018-05-06T13:11:53.692Z,3.20
2018-05-06T13:14:21.135Z,2.80
2018-05-06T13:16:48.577Z,2.80
2018-05-06T13:19:16.019Z,3.00
2018-05-06T13:21:44.230Z,2.90
2018-05-06T13:24:11.705Z,2.83
2018-05-06T13:26:39.097Z,3.07
2018-05-06T13:29:06.528Z,2.60
2018-05-06T13:31:33.974Z,3.47
2018-05-06T13:34:01.402Z,2.67
2018-05-06T13:36:28.846Z,2.90
2018-05-06T13:38:56.269Z,3.10
2018-05-06T13:41:23.715Z,3.50
2018-05-06T13:43:51.159Z,2.70
2018-05-06T13:46:18.596Z,3.03
2018-05-06T13:48:46.025Z,2.90
2018-05-06T13:51:14.236Z,3.10
2018-05-06T13:53:41.682Z,2.75
2018-05-06T13:56:09.109Z,3.00
2018-05-06T13:58:36.574Z,2.60
2018-05-06T14:01:04.024Z,3.00
2018-05-06T14:03:31.466Z,3.00
2018-05-06T14:05:58.909Z,2.78
2018-05-06T14:08:26.368Z,2.95
2018-05-06T14:10:53.805Z,3.03
2018-05-06T14:13:21.245Z,2.50
2018-05-06T14:15:48.686Z,2.90
2018-05-06T14:18:16.121Z,3.00
2018-05-06T14:20:43.553Z,2.80
2018-05-06T14:23:10.989Z,3.20
2018-05-06T14:25:38.421Z,3.00
2018-05-06T14:28:05.857Z,2.23
2018-05-06T14:30:34.054Z,3.00
2018-05-06T14:33:02.266Z,2.60
2018-05-06T14:35:30.461Z,3.23
2018-05-06T14:37:58.665Z,3.00
2018-05-06T14:40:26.871Z,3.10
2018-05-06T14:42:54.316Z,2.30
2018-05-06T14:45:21.750Z,2.40
2018-05-06T14:48:01.206Z,2.37
2018-05-06T14:50:28.638Z,2.40
2018-05-06T14:52:56.075Z,2.60
2018-05-06T14:55:23.505Z,2.53
2018-05-06T14:57:51.705Z,3.23
2018-05-06T15:00:19.912Z,2.43
2018-05-06T15:02:47.347Z,2.20
2018-05-06T15:05:14.791Z,2.17
2018-05-06T15:07:42.230Z,3.00
2018-05-06T15:10:10.436Z,3.10
2018-05-06T15:12:38.641Z,2.90
2018-05-06T15:15:06.087Z,2.70
2018-05-06T15:17:33.521Z,2.73
2018-05-06T15:20:00.971Z,2.20
2018-05-06T15:22:28.413Z,2.60
2018-05-06T15:24:56.614Z,2.70
2018-05-06T15:27:24.814Z,2.13
2018-05-06T15:29:52.253Z,2.27
2018-05-06T15:32:19.689Z,2.87
2018-05-06T15:34:47.117Z,2.23
2018-05-06T15:37:15.333Z,3.10
2018-05-06T15:39:43.521Z,2.03
2018-05-06T15:42:11.718Z,3.00
2018-05-06T15:44:39.933Z,2.40
2018-05-06T15:47:07.358Z,2.17
2018-05-06T15:49:34.798Z,2.27
2018-05-06T15:52:02.231Z,2.10
2018-05-06T15:54:29.670Z,2.00
2018-05-06T15:56:57.102Z,2.80
2018-05-06T15:59:24.542Z,2.60
2018-05-06T16:02:03.809Z,2.07
2018-05-06T16:04:31.249Z,2.10
2018-05-06T16:06:58.681Z,2.03
2018-05-06T16:09:26.126Z,2.10
2018-05-06T16:11:53.636Z,2.20
2018-05-06T16:14:21.025Z,2.40
2018-05-06T16:16:48.457Z,1.90
2018-05-06T16:19:15.894Z,1.90
2018-05-06T16:21:43.333Z,2.30
2018-05-06T16:24:10.774Z,1.90
2018-05-06T16:26:38.991Z,2.20
2018-05-06T16:29:07.189Z,2.40
2018-05-06T16:31:35.381Z,2.53
2018-05-06T16:34:03.587Z,1.87
2018-05-06T16:36:31.786Z,2.30
2018-05-06T16:38:59.988Z,2.27
2018-05-06T16:41:27.426Z,2.17
2018-05-06T16:43:54.867Z,1.90
2018-05-06T16:46:22.310Z,2.30
2018-05-06T16:48:50.517Z,2.10
2018-05-06T16:51:18.722Z,2.53
2018-05-06T16:53:46.934Z,1.80
2018-05-06T16:56:14.366Z,1.57
2018-05-06T16:58:41.805Z,1.90
2018-05-06T17:01:09.233Z,2.00
2018-05-06T17:03:36.670Z,1.80
2018-05-06T17:06:04.114Z,2.10
2018-05-06T17:08:32.326Z,2.20
2018-05-06T17:11:00.528Z,1.77
2018-05-06T17:13:28.729Z,1.90
2018-05-06T17:15:56.175Z,1.53
2018-05-06T17:18:23.610Z,1.70
2018-05-06T17:20:51.053Z,1.80
2018-05-06T17:23:19.262Z,2.00
2018-05-06T17:25:47.475Z,1.73
2018-05-06T17:28:14.906Z,1.93
2018-05-06T17:30:42.349Z,2.50
2018-05-06T17:33:09.781Z,2.23
2018-05-06T17:35:37.258Z,1.80
2018-05-06T17:38:04.689Z,1.63
2018-05-06T17:40:32.125Z,2.10
2018-05-06T17:42:59.565Z,1.73
2018-05-06T17:45:27.005Z,1.60
2018-05-06T17:47:55.210Z,1.77
2018-05-06T17:50:23.414Z,2.37
2018-05-06T17:52:51.626Z,1.70
2018-05-06T17:55:19.065Z,1.70
2018-05-06T17:57:46.509Z,1.60
2018-05-06T18:00:13.941Z,1.60
2018-05-06T18:02:42.149Z,1.80
2018-05-06T18:05:10.349Z,2.00
2018-05-06T18:07:38.576Z,1.70
2018-05-06T18:10:06.755Z,1.77
2018-05-06T18:12:34.185Z,1.67
2018-05-06T18:15:01.634Z,1.83
2018-05-06T18:17:29.066Z,2.17
2018-05-06T18:19:56.515Z,2.43
2018-05-06T18:22:23.945Z,1.87
2018-05-06T18:24:52.153Z,1.87
2018-05-06T18:27:20.355Z,1.90
2018-05-06T18:29:48.565Z,2.10
2018-05-06T18:32:16.079Z,1.53
2018-05-06T18:34:43.430Z,1.73
2018-05-06T18:37:10.874Z,1.87
2018-05-06T18:39:38.326Z,2.17
2018-05-06T18:42:05.781Z,1.70
2018-05-06T18:44:33.209Z,1.63
2018-05-06T18:47:00.745Z,1.73
2018-05-06T18:49:28.098Z,2.00
2018-05-06T18:51:56.293Z,1.90
2018-05-06T18:54:24.503Z,1.90
2018-05-06T18:56:52.698Z,1.63
2018-05-06T18:59:20.898Z,1.70
2018-05-06T19:01:49.113Z,1.63
2018-05-06T19:04:16.547Z,1.87
2018-05-06T19:06:44.026Z,1.83
2018-05-06T19:09:11.422Z,1.73
2018-05-06T19:11:38.866Z,1.73
2018-05-06T19:14:06.297Z,1.67
2018-05-06T19:16:34.511Z,1.73
2018-05-06T19:19:02.707Z,1.47
2018-05-06T19:21:30.910Z,1.80
2018-05-06T19:23:59.106Z,1.70
2018-05-06T19:26:27.310Z,1.90
2018-05-06T19:28:54.751Z,1.47
2018-05-06T19:31:22.194Z,1.60
2018-05-06T19:33:49.626Z,1.57
2018-05-06T19:36:17.076Z,1.80
2018-05-06T19:38:44.505Z,1.70
2018-05-06T19:41:11.934Z,1.60
2018-05-06T19:43:39.379Z,1.70
2018-05-06T19:46:07.587Z,1.83
2018-05-06T19:48:35.845Z,1.30
2018-05-06T19:51:03.221Z,1.70
2018-05-06T19:53:30.674Z,2.30
2018-05-06T19:55:58.118Z,2.13
2018-05-06T19:58:26.327Z,1.73
2018-05-06T20:00:54.530Z,1.63
2018-05-06T20:03:22.742Z,2.03
2018-05-06T20:05:50.175Z,2.10
2018-05-06T20:08:17.613Z,1.67
2018-05-06T20:10:45.050Z,1.67
2018-05-06T20:13:12.493Z,1.63
2018-05-06T20:15:39.926Z,1.80
2018-05-06T20:18:08.138Z,1.40
2018-05-06T20:20:36.334Z,1.80
2018-05-06T20:23:03.774Z,1.50
2018-05-06T20:25:31.214Z,1.83
2018-05-06T20:27:58.660Z,1.70
2018-05-06T20:30:26.085Z,1.87
2018-05-06T20:32:53.522Z,1.80
2018-05-06T20:35:20.961Z,1.87
2018-05-06T20:37:48.391Z,1.77
2018-05-06T20:40:16.607Z,2.53
2018-05-06T20:42:44.809Z,1.83
2018-05-06T20:45:13.113Z,1.60
2018-05-06T20:47:41.294Z,2.20
2018-05-06T20:50:08.742Z,2.50
2018-05-06T20:52:36.165Z,1.60
2018-05-06T20:55:04.368Z,1.80
2018-05-06T20:57:32.562Z,1.50
2018-05-06T21:00:00.775Z,1.40
2018-05-06T21:02:28.971Z,1.70
2018-05-06T21:04:57.173Z,2.00
2018-05-06T21:07:25.378Z,1.83
2018-05-06T21:09:52.823Z,1.50
2018-05-06T21:12:20.267Z,1.53
2018-05-06T21:14:47.704Z,1.47
2018-05-06T21:17:15.134Z,1.73
2018-05-06T21:19:42.580Z,2.03
2018-05-06T21:22:10.773Z,1.70
2018-05-06T21:24:38.987Z,1.80
2018-05-06T21:27:06.417Z,2.03
2018-05-06T21:29:33.866Z,1.77
2018-05-06T21:32:01.293Z,1.77
2018-05-06T21:34:28.739Z,1.63
2018-05-06T21:36:56.179Z,1.33
2018-05-06T21:39:24.373Z,1.70
2018-05-06T21:41:52.581Z,2.30
2018-05-06T21:44:20.015Z,1.40
2018-05-06T21:46:47.473Z,1.60
2018-05-06T21:49:14.901Z,1.80
2018-05-06T21:51:42.351Z,1.57
2018-05-06T21:54:09.789Z,1.60
2018-05-06T21:56:37.228Z,1.30
2018-05-06T21:59:04.657Z,1.80
2018-05-06T22:01:32.104Z,1.70
2018-05-06T22:03:59.534Z,1.70
2018-05-06T22:06:26.974Z,1.67
2018-05-06T22:08:55.182Z,1.40
2018-05-06T22:11:23.382Z,1.30
2018-05-06T22:13:51.578Z,1.40
2018-05-06T22:16:19.780Z,1.53
2018-05-06T22:18:47.973Z,2.00
2018-05-06T22:21:16.185Z,1.50
2018-05-06T22:23:43.638Z,1.80
2018-05-06T22:26:11.089Z,1.87
2018-05-06T22:28:38.530Z,1.50
2018-05-06T22:31:05.974Z,1.97
2018-05-06T22:33:33.402Z,1.73
2018-05-06T22:36:00.845Z,2.00
2018-05-06T22:38:28.283Z,1.90
2018-05-06T22:40:55.721Z,2.10
2018-05-06T22:43:23.922Z,1.80
2018-05-06T22:45:52.132Z,2.03
2018-05-06T22:48:19.573Z,1.73
2018-05-06T22:50:47.015Z,1.80
2018-05-06T22:53:14.453Z,1.80
2018-05-06T22:55:42.658Z,1.90
2018-05-06T22:58:10.874Z,1.63
2018-05-06T23:00:38.309Z,2.07
2018-05-06T23:03:05.745Z,2.37
2018-05-06T23:05:33.237Z,2.10
2018-05-06T23:08:00.611Z,1.83
2018-05-06T23:10:28.054Z,2.10
2018-05-06T23:12:55.485Z,2.10
2018-05-06T23:15:22.913Z,2.00
2018-05-06T23:17:51.117Z,1.97
2018-05-06T23:20:19.312Z,2.10
2018-05-06T23:22:47.517Z,2.13
2018-05-06T23:25:15.718Z,2.03
2018-05-06T23:27:43.921Z,1.53
2018-05-06T23:30:12.126Z,1.97
2018-05-06T23:32:40.330Z,1.50
2018-05-06T23:35:07.765Z,2.17
2018-05-06T23:37:35.201Z,2.13
2018-05-06T23:40:02.633Z,1.73
2018-05-06T23:42:30.080Z,2.30
2018-05-06T23:44:57.522Z,2.20
2018-05-06T23:47:25.721Z,2.27
2018-05-06T23:49:53.923Z,2.40
2018-05-06T23:52:22.128Z,1.90
2018-05-06T23:54:50.326Z,2.10
2018-05-06T23:57:18.530Z,2.20
2018-05-06T23:59:46.726Z,2.30
